sensor_id;sensor_type;location;lat;lon;timestamp;P1;durP1;ratioP1;P2;durP2;ratioP2
71665;SDS011;59503;53.486;10.196;2024-01-06T00:01:49;12.37;;;4.90;;
71665;SDS011;59503;53.486;10.196;2024-01-06T00:04:14;13.27;;;4.80;;
71665;SDS011;59503;53.486;10.196;2024-01-06T00:06:40;9.30;;;4.00;;
71665;SDS011;59503;53.486;10.196;2024-01-06T00:09:05;10.23;;;4.33;;
71665;SDS011;59503;53.486;10.196;2024-01-06T00:11:31;10.82;;;4.63;;
71665;SDS011;59503;53.486;10.196;2024-01-06T00:13:56;11.43;;;4.67;;
71665;SDS011;59503;53.486;10.196;2024-01-06T00:16:22;14.37;;;4.70;;
71665;SDS011;59503;53.486;10.196;2024-01-06T00:18:47;11.70;;;4.73;;
71665;SDS011;59503;53.486;10.196;2024-01-06T00:21:13;10.07;;;4.17;;
71665;SDS011;59503;53.486;10.196;2024-01-06T00:23:42;11.68;;;5.07;;
71665;SDS011;59503;53.486;10.196;2024-01-06T00:26:08;10.98;;;4.55;;
71665;SDS011;59503;53.486;10.196;2024-01-06T00:28:35;13.18;;;5.00;;
71665;SDS011;59503;53.486;10.196;2024-01-06T00:31:00;10.07;;;4.17;;
71665;SDS011;59503;53.486;10.196;2024-01-06T00:33:25;9.90;;;4.57;;
71665;SDS011;59503;53.486;10.196;2024-01-06T00:35:51;8.93;;;3.70;;
71665;SDS011;59503;53.486;10.196;2024-01-06T00:38:17;13.07;;;4.78;;
71665;SDS011;59503;53.486;10.196;2024-01-06T00:40:42;10.17;;;4.43;;
71665;SDS011;59503;53.486;10.196;2024-01-06T00:43:08;9.07;;;4.07;;
71665;SDS011;59503;53.486;10.196;2024-01-06T00:45:33;10.35;;;4.22;;
71665;SDS011;59503;53.486;10.196;2024-01-06T00:47:58;11.67;;;4.33;;
71665;SDS011;59503;53.486;10.196;2024-01-06T00:50:24;9.83;;;3.97;;
71665;SDS011;59503;53.486;10.196;2024-01-06T00:52:49;10.10;;;4.67;;
71665;SDS011;59503;53.486;10.196;2024-01-06T00:55:18;12.10;;;5.07;;
71665;SDS011;59503;53.486;10.196;2024-01-06T00:57:45;13.10;;;5.03;;
71665;SDS011;59503;53.486;10.196;2024-01-06T01:00:11;9.57;;;4.30;;
71665;SDS011;59503;53.486;10.196;2024-01-06T01:02:38;15.95;;;5.15;;
71665;SDS011;59503;53.486;10.196;2024-01-06T01:05:03;11.57;;;4.00;;
71665;SDS011;59503;53.486;10.196;2024-01-06T01:07:29;12.17;;;4.80;;
71665;SDS011;59503;53.486;10.196;2024-01-06T01:09:55;11.00;;;4.82;;
71665;SDS011;59503;53.486;10.196;2024-01-06T01:12:21;11.85;;;4.93;;
71665;SDS011;59503;53.486;10.196;2024-01-06T01:14:47;12.53;;;5.37;;
71665;SDS011;59503;53.486;10.196;2024-01-06T01:17:12;13.00;;;4.95;;
71665;SDS011;59503;53.486;10.196;2024-01-06T01:19:38;11.23;;;4.77;;
71665;SDS011;59503;53.486;10.196;2024-01-06T01:22:03;12.97;;;4.97;;
71665;SDS011;59503;53.486;10.196;2024-01-06T01:24:29;11.77;;;4.80;;
71665;SDS011;59503;53.486;10.196;2024-01-06T01:26:54;10.80;;;4.50;;
71665;SDS011;59503;53.486;10.196;2024-01-06T01:29:20;10.73;;;4.57;;
71665;SDS011;59503;53.486;10.196;2024-01-06T01:31:45;11.27;;;4.60;;
71665;SDS011;59503;53.486;10.196;2024-01-06T01:34:12;12.55;;;5.13;;
71665;SDS011;59503;53.486;10.196;2024-01-06T01:36:38;12.85;;;5.20;;
71665;SDS011;59503;53.486;10.196;2024-01-06T01:39:03;10.27;;;4.80;;
71665;SDS011;59503;53.486;10.196;2024-01-06T01:41:28;12.30;;;5.27;;
71665;SDS011;59503;53.486;10.196;2024-01-06T01:43:54;13.40;;;4.93;;
71665;SDS011;59503;53.486;10.196;2024-01-06T01:46:26;12.27;;;4.60;;
71665;SDS011;59503;53.486;10.196;2024-01-06T01:48:54;14.15;;;5.30;;
71665;SDS011;59503;53.486;10.196;2024-01-06T01:51:21;13.05;;;5.22;;
71665;SDS011;59503;53.486;10.196;2024-01-06T01:53:47;11.00;;;4.70;;
71665;SDS011;59503;53.486;10.196;2024-01-06T01:56:13;13.75;;;4.75;;
71665;SDS011;59503;53.486;10.196;2024-01-06T01:58:39;12.63;;;5.00;;
71665;SDS011;59503;53.486;10.196;2024-01-06T02:01:05;13.20;;;5.18;;
71665;SDS011;59503;53.486;10.196;2024-01-06T02:03:32;11.43;;;4.83;;
71665;SDS011;59503;53.486;10.196;2024-01-06T02:05:58;11.73;;;4.63;;
71665;SDS011;59503;53.486;10.196;2024-01-06T02:08:24;10.97;;;4.50;;
71665;SDS011;59503;53.486;10.196;2024-01-06T02:10:49;10.55;;;4.57;;
71665;SDS011;59503;53.486;10.196;2024-01-06T02:13:15;14.80;;;4.73;;
71665;SDS011;59503;53.486;10.196;2024-01-06T02:15:41;14.15;;;5.00;;
71665;SDS011;59503;53.486;10.196;2024-01-06T02:18:06;12.83;;;5.00;;
71665;SDS011;59503;53.486;10.196;2024-01-06T02:20:32;10.83;;;4.50;;
71665;SDS011;59503;53.486;10.196;2024-01-06T02:22:57;7.95;;;4.13;;
71665;SDS011;59503;53.486;10.196;2024-01-06T02:25:25;9.10;;;4.88;;
71665;SDS011;59503;53.486;10.196;2024-01-06T02:27:51;10.40;;;4.53;;
71665;SDS011;59503;53.486;10.196;2024-01-06T02:30:16;13.80;;;4.40;;
71665;SDS011;59503;53.486;10.196;2024-01-06T02:32:42;10.63;;;4.97;;
71665;SDS011;59503;53.486;10.196;2024-01-06T02:35:07;9.60;;;4.00;;
71665;SDS011;59503;53.486;10.196;2024-01-06T02:37:33;11.52;;;4.72;;
71665;SDS011;59503;53.486;10.196;2024-01-06T02:39:58;11.63;;;4.43;;
71665;SDS011;59503;53.486;10.196;2024-01-06T02:42:24;14.50;;;4.80;;
71665;SDS011;59503;53.486;10.196;2024-01-06T02:44:50;9.32;;;4.47;;
71665;SDS011;59503;53.486;10.196;2024-01-06T02:47:16;9.63;;;4.40;;
71665;SDS011;59503;53.486;10.196;2024-01-06T02:49:42;10.02;;;3.90;;
71665;SDS011;59503;53.486;10.196;2024-01-06T02:52:08;11.03;;;4.60;;
71665;SDS011;59503;53.486;10.196;2024-01-06T02:54:33;11.15;;;4.20;;
71665;SDS011;59503;53.486;10.196;2024-01-06T02:56:59;11.53;;;4.10;;
71665;SDS011;59503;53.486;10.196;2024-01-06T02:59:24;11.27;;;4.70;;
71665;SDS011;59503;53.486;10.196;2024-01-06T03:01:50;10.37;;;4.33;;
71665;SDS011;59503;53.486;10.196;2024-01-06T03:04:15;11.32;;;4.30;;
71665;SDS011;59503;53.486;10.196;2024-01-06T03:06:40;10.43;;;4.03;;
71665;SDS011;59503;53.486;10.196;2024-01-06T03:09:06;9.90;;;3.67;;
71665;SDS011;59503;53.486;10.196;2024-01-06T03:11:32;10.35;;;4.28;;
71665;SDS011;59503;53.486;10.196;2024-01-06T03:13:58;10.50;;;4.40;;
71665;SDS011;59503;53.486;10.196;2024-01-06T03:16:23;9.20;;;4.30;;
71665;SDS011;59503;53.486;10.196;2024-01-06T03:18:49;10.97;;;4.13;;
71665;SDS011;59503;53.486;10.196;2024-01-06T03:21:18;11.17;;;4.50;;
71665;SDS011;59503;53.486;10.196;2024-01-06T03:23:44;10.40;;;4.40;;
71665;SDS011;59503;53.486;10.196;2024-01-06T03:26:09;11.10;;;4.60;;
71665;SDS011;59503;53.486;10.196;2024-01-06T03:28:35;12.30;;;4.53;;
71665;SDS011;59503;53.486;10.196;2024-01-06T03:31:00;10.33;;;4.23;;
71665;SDS011;59503;53.486;10.196;2024-01-06T03:33:25;10.37;;;4.43;;
71665;SDS011;59503;53.486;10.196;2024-01-06T03:35:51;11.17;;;4.87;;
71665;SDS011;59503;53.486;10.196;2024-01-06T03:38:16;10.37;;;5.03;;
71665;SDS011;59503;53.486;10.196;2024-01-06T03:40:42;10.23;;;3.70;;
71665;SDS011;59503;53.486;10.196;2024-01-06T03:43:07;12.30;;;5.10;;
71665;SDS011;59503;53.486;10.196;2024-01-06T03:45:32;10.87;;;5.33;;
71665;SDS011;59503;53.486;10.196;2024-01-06T03:47:58;11.90;;;4.70;;
71665;SDS011;59503;53.486;10.196;2024-01-06T03:50:23;12.07;;;5.03;;
71665;SDS011;59503;53.486;10.196;2024-01-06T03:52:49;11.17;;;5.20;;
71665;SDS011;59503;53.486;10.196;2024-01-06T03:55:14;11.23;;;4.67;;
71665;SDS011;59503;53.486;10.196;2024-01-06T03:57:41;14.15;;;5.28;;
71665;SDS011;59503;53.486;10.196;2024-01-06T04:00:07;11.07;;;4.67;;
71665;SDS011;59503;53.486;10.196;2024-01-06T04:02:33;13.55;;;5.35;;
71665;SDS011;59503;53.486;10.196;2024-01-06T04:04:58;12.15;;;4.75;;
71665;SDS011;59503;53.486;10.196;2024-01-06T04:07:24;12.40;;;4.93;;
71665;SDS011;59503;53.486;10.196;2024-01-06T04:09:49;12.33;;;5.13;;
71665;SDS011;59503;53.486;10.196;2024-01-06T04:12:15;12.95;;;5.05;;
71665;SDS011;59503;53.486;10.196;2024-01-06T04:14:41;11.43;;;5.20;;
71665;SDS011;59503;53.486;10.196;2024-01-06T04:17:06;11.73;;;5.10;;
71665;SDS011;59503;53.486;10.196;2024-01-06T04:19:31;13.82;;;5.07;;
71665;SDS011;59503;53.486;10.196;2024-01-06T04:21:57;13.10;;;5.60;;
71665;SDS011;59503;53.486;10.196;2024-01-06T04:24:22;13.30;;;4.73;;
71665;SDS011;59503;53.486;10.196;2024-01-06T04:26:49;11.80;;;5.25;;
71665;SDS011;59503;53.486;10.196;2024-01-06T04:29:15;11.27;;;5.00;;
71665;SDS011;59503;53.486;10.196;2024-01-06T04:31:40;13.45;;;5.80;;
71665;SDS011;59503;53.486;10.196;2024-01-06T04:34:06;12.23;;;5.40;;
71665;SDS011;59503;53.486;10.196;2024-01-06T04:36:31;12.23;;;5.28;;
71665;SDS011;59503;53.486;10.196;2024-01-06T04:38:57;12.60;;;4.93;;
71665;SDS011;59503;53.486;10.196;2024-01-06T04:41:22;13.97;;;5.50;;
71665;SDS011;59503;53.486;10.196;2024-01-06T04:43:48;12.07;;;5.47;;
71665;SDS011;59503;53.486;10.196;2024-01-06T04:46:13;13.60;;;6.00;;
71665;SDS011;59503;53.486;10.196;2024-01-06T04:48:41;10.87;;;4.90;;
71665;SDS011;59503;53.486;10.196;2024-01-06T04:51:08;15.90;;;5.72;;
71665;SDS011;59503;53.486;10.196;2024-01-06T04:53:38;12.02;;;5.93;;
71665;SDS011;59503;53.486;10.196;2024-01-06T04:56:03;13.97;;;5.93;;
71665;SDS011;59503;53.486;10.196;2024-01-06T04:58:29;12.38;;;5.30;;
71665;SDS011;59503;53.486;10.196;2024-01-06T05:00:54;12.43;;;5.53;;
71665;SDS011;59503;53.486;10.196;2024-01-06T05:03:20;12.57;;;5.60;;
71665;SDS011;59503;53.486;10.196;2024-01-06T05:05:45;16.27;;;5.50;;
71665;SDS011;59503;53.486;10.196;2024-01-06T05:08:11;12.63;;;5.10;;
71665;SDS011;59503;53.486;10.196;2024-01-06T05:10:36;12.97;;;5.67;;
71665;SDS011;59503;53.486;10.196;2024-01-06T05:13:02;13.02;;;5.50;;
71665;SDS011;59503;53.486;10.196;2024-01-06T05:15:28;13.63;;;5.47;;
71665;SDS011;59503;53.486;10.196;2024-01-06T05:17:53;14.13;;;5.57;;
71665;SDS011;59503;53.486;10.196;2024-01-06T05:20:19;13.90;;;5.37;;
71665;SDS011;59503;53.486;10.196;2024-01-06T05:22:44;14.80;;;6.47;;
71665;SDS011;59503;53.486;10.196;2024-01-06T05:25:10;15.45;;;6.03;;
71665;SDS011;59503;53.486;10.196;2024-01-06T05:27:35;12.10;;;5.33;;
71665;SDS011;59503;53.486;10.196;2024-01-06T05:30:01;12.80;;;5.53;;
71665;SDS011;59503;53.486;10.196;2024-01-06T05:32:27;14.80;;;5.60;;
71665;SDS011;59503;53.486;10.196;2024-01-06T05:34:52;12.67;;;5.30;;
71665;SDS011;59503;53.486;10.196;2024-01-06T05:37:18;14.00;;;5.70;;
71665;SDS011;59503;53.486;10.196;2024-01-06T05:39:43;13.23;;;5.13;;
71665;SDS011;59503;53.486;10.196;2024-01-06T05:42:09;12.67;;;5.67;;
71665;SDS011;59503;53.486;10.196;2024-01-06T05:44:40;11.95;;;5.47;;
71665;SDS011;59503;53.486;10.196;2024-01-06T05:47:05;11.53;;;5.57;;
71665;SDS011;59503;53.486;10.196;2024-01-06T05:49:31;13.60;;;6.28;;
71665;SDS011;59503;53.486;10.196;2024-01-06T05:51:57;13.90;;;5.63;;
71665;SDS011;59503;53.486;10.196;2024-01-06T05:54:23;11.75;;;5.10;;
71665;SDS011;59503;53.486;10.196;2024-01-06T05:56:48;12.90;;;5.47;;
71665;SDS011;59503;53.486;10.196;2024-01-06T05:59:13;15.10;;;5.85;;
71665;SDS011;59503;53.486;10.196;2024-01-06T06:01:39;16.00;;;6.30;;
71665;SDS011;59503;53.486;10.196;2024-01-06T06:04:05;14.90;;;6.55;;
71665;SDS011;59503;53.486;10.196;2024-01-06T06:06:31;14.13;;;6.47;;
71665;SDS011;59503;53.486;10.196;2024-01-06T06:08:57;16.50;;;6.43;;
71665;SDS011;59503;53.486;10.196;2024-01-06T06:11:23;15.20;;;5.67;;
71665;SDS011;59503;53.486;10.196;2024-01-06T06:13:48;13.10;;;6.10;;
71665;SDS011;59503;53.486;10.196;2024-01-06T06:16:14;15.43;;;5.83;;
71665;SDS011;59503;53.486;10.196;2024-01-06T06:18:39;13.33;;;5.97;;
71665;SDS011;59503;53.486;10.196;2024-01-06T06:21:06;14.45;;;5.15;;
71665;SDS011;59503;53.486;10.196;2024-01-06T06:23:35;13.30;;;6.13;;
71665;SDS011;59503;53.486;10.196;2024-01-06T06:26:06;14.10;;;5.93;;
71665;SDS011;59503;53.486;10.196;2024-01-06T06:28:33;14.25;;;5.20;;
71665;SDS011;59503;53.486;10.196;2024-01-06T06:30:59;13.90;;;5.72;;
71665;SDS011;59503;53.486;10.196;2024-01-06T06:33:26;15.23;;;6.07;;
71665;SDS011;59503;53.486;10.196;2024-01-06T06:35:52;11.30;;;5.40;;
71665;SDS011;59503;53.486;10.196;2024-01-06T06:38:17;16.40;;;6.50;;
71665;SDS011;59503;53.486;10.196;2024-01-06T06:40:42;13.57;;;5.43;;
71665;SDS011;59503;53.486;10.196;2024-01-06T06:43:08;13.33;;;5.57;;
71665;SDS011;59503;53.486;10.196;2024-01-06T06:45:34;12.70;;;5.43;;
71665;SDS011;59503;53.486;10.196;2024-01-06T06:47:59;13.90;;;5.87;;
71665;SDS011;59503;53.486;10.196;2024-01-06T06:50:24;12.73;;;5.47;;
71665;SDS011;59503;53.486;10.196;2024-01-06T06:52:50;13.73;;;5.27;;
71665;SDS011;59503;53.486;10.196;2024-01-06T06:55:15;16.73;;;5.30;;
71665;SDS011;59503;53.486;10.196;2024-01-06T06:57:41;13.35;;;5.45;;
71665;SDS011;59503;53.486;10.196;2024-01-06T07:00:06;15.03;;;6.10;;
71665;SDS011;59503;53.486;10.196;2024-01-06T07:02:33;17.73;;;5.70;;
71665;SDS011;59503;53.486;10.196;2024-01-06T07:04:59;14.23;;;5.70;;
71665;SDS011;59503;53.486;10.196;2024-01-06T07:07:24;12.50;;;5.20;;
71665;SDS011;59503;53.486;10.196;2024-01-06T07:09:50;13.27;;;5.80;;
71665;SDS011;59503;53.486;10.196;2024-01-06T07:12:15;11.30;;;5.17;;
71665;SDS011;59503;53.486;10.196;2024-01-06T07:14:40;13.10;;;5.23;;
71665;SDS011;59503;53.486;10.196;2024-01-06T07:17:06;11.52;;;5.78;;
71665;SDS011;59503;53.486;10.196;2024-01-06T07:19:31;11.33;;;5.13;;
71665;SDS011;59503;53.486;10.196;2024-01-06T07:21:57;13.77;;;5.57;;
71665;SDS011;59503;53.486;10.196;2024-01-06T07:24:22;13.00;;;5.77;;
71665;SDS011;59503;53.486;10.196;2024-01-06T07:26:48;13.80;;;4.93;;
71665;SDS011;59503;53.486;10.196;2024-01-06T07:29:13;12.93;;;5.03;;
71665;SDS011;59503;53.486;10.196;2024-01-06T07:31:39;12.60;;;5.47;;
71665;SDS011;59503;53.486;10.196;2024-01-06T07:34:04;12.45;;;5.13;;
71665;SDS011;59503;53.486;10.196;2024-01-06T07:36:31;14.73;;;6.00;;
71665;SDS011;59503;53.486;10.196;2024-01-06T07:38:56;12.95;;;5.53;;
71665;SDS011;59503;53.486;10.196;2024-01-06T07:41:22;14.97;;;5.90;;
71665;SDS011;59503;53.486;10.196;2024-01-06T07:43:47;15.57;;;6.50;;
71665;SDS011;59503;53.486;10.196;2024-01-06T07:46:13;12.68;;;5.60;;
71665;SDS011;59503;53.486;10.196;2024-01-06T07:48:38;17.10;;;6.50;;
71665;SDS011;59503;53.486;10.196;2024-01-06T07:51:04;14.03;;;5.70;;
71665;SDS011;59503;53.486;10.196;2024-01-06T07:53:29;10.17;;;5.30;;
71665;SDS011;59503;53.486;10.196;2024-01-06T07:55:55;14.75;;;6.32;;
71665;SDS011;59503;53.486;10.196;2024-01-06T07:58:20;12.83;;;5.87;;
71665;SDS011;59503;53.486;10.196;2024-01-06T08:00:46;14.60;;;5.70;;
71665;SDS011;59503;53.486;10.196;2024-01-06T08:03:12;13.38;;;5.63;;
71665;SDS011;59503;53.486;10.196;2024-01-06T08:05:38;14.83;;;6.20;;
71665;SDS011;59503;53.486;10.196;2024-01-06T08:08:04;17.20;;;6.35;;
71665;SDS011;59503;53.486;10.196;2024-01-06T08:10:32;15.50;;;6.40;;
71665;SDS011;59503;53.486;10.196;2024-01-06T08:12:57;16.33;;;6.05;;
71665;SDS011;59503;53.486;10.196;2024-01-06T08:15:24;15.57;;;6.13;;
71665;SDS011;59503;53.486;10.196;2024-01-06T08:17:49;13.65;;;6.15;;
71665;SDS011;59503;53.486;10.196;2024-01-06T08:20:14;17.37;;;6.53;;
71665;SDS011;59503;53.486;10.196;2024-01-06T08:22:46;13.87;;;5.83;;
71665;SDS011;59503;53.486;10.196;2024-01-06T08:25:11;12.95;;;6.07;;
71665;SDS011;59503;53.486;10.196;2024-01-06T08:27:38;12.40;;;5.20;;
71665;SDS011;59503;53.486;10.196;2024-01-06T08:30:04;13.00;;;5.10;;
71665;SDS011;59503;53.486;10.196;2024-01-06T08:32:30;17.10;;;6.25;;
71665;SDS011;59503;53.486;10.196;2024-01-06T08:34:55;16.33;;;5.70;;
71665;SDS011;59503;53.486;10.196;2024-01-06T08:37:20;12.77;;;5.70;;
71665;SDS011;59503;53.486;10.196;2024-01-06T08:39:46;15.87;;;6.00;;
71665;SDS011;59503;53.486;10.196;2024-01-06T08:42:11;13.70;;;5.63;;
71665;SDS011;59503;53.486;10.196;2024-01-06T08:44:37;15.13;;;6.10;;
71665;SDS011;59503;53.486;10.196;2024-01-06T08:47:02;13.30;;;6.47;;
71665;SDS011;59503;53.486;10.196;2024-01-06T08:49:28;17.52;;;6.53;;
71665;SDS011;59503;53.486;10.196;2024-01-06T08:51:54;14.27;;;6.10;;
71665;SDS011;59503;53.486;10.196;2024-01-06T08:54:20;15.17;;;7.37;;
71665;SDS011;59503;53.486;10.196;2024-01-06T08:56:45;12.87;;;5.57;;
71665;SDS011;59503;53.486;10.196;2024-01-06T08:59:10;14.37;;;6.13;;
71665;SDS011;59503;53.486;10.196;2024-01-06T09:01:36;14.37;;;5.90;;
71665;SDS011;59503;53.486;10.196;2024-01-06T09:04:02;13.65;;;6.20;;
71665;SDS011;59503;53.486;10.196;2024-01-06T09:06:28;13.67;;;5.33;;
71665;SDS011;59503;53.486;10.196;2024-01-06T09:08:54;15.55;;;6.13;;
71665;SDS011;59503;53.486;10.196;2024-01-06T09:11:19;12.13;;;5.37;;
71665;SDS011;59503;53.486;10.196;2024-01-06T09:13:44;13.27;;;5.53;;
71665;SDS011;59503;53.486;10.196;2024-01-06T09:16:12;13.50;;;6.37;;
71665;SDS011;59503;53.486;10.196;2024-01-06T09:18:38;14.48;;;5.97;;
71665;SDS011;59503;53.486;10.196;2024-01-06T09:21:03;15.90;;;6.00;;
71665;SDS011;59503;53.486;10.196;2024-01-06T09:23:28;15.88;;;5.88;;
71665;SDS011;59503;53.486;10.196;2024-01-06T09:25:56;14.75;;;5.88;;
71665;SDS011;59503;53.486;10.196;2024-01-06T09:28:21;17.77;;;6.63;;
71665;SDS011;59503;53.486;10.196;2024-01-06T09:30:47;14.23;;;6.03;;
71665;SDS011;59503;53.486;10.196;2024-01-06T09:33:12;14.75;;;6.10;;
71665;SDS011;59503;53.486;10.196;2024-01-06T09:35:40;16.92;;;5.93;;
71665;SDS011;59503;53.486;10.196;2024-01-06T09:38:07;16.13;;;6.17;;
71665;SDS011;59503;53.486;10.196;2024-01-06T09:40:32;14.35;;;6.20;;
71665;SDS011;59503;53.486;10.196;2024-01-06T09:43:00;14.43;;;6.33;;
71665;SDS011;59503;53.486;10.196;2024-01-06T09:45:27;12.93;;;5.35;;
71665;SDS011;59503;53.486;10.196;2024-01-06T09:47:53;12.98;;;5.45;;
71665;SDS011;59503;53.486;10.196;2024-01-06T09:50:20;12.70;;;5.70;;
71665;SDS011;59503;53.486;10.196;2024-01-06T09:52:46;14.38;;;5.70;;
71665;SDS011;59503;53.486;10.196;2024-01-06T09:55:29;14.60;;;6.47;;
71665;SDS011;59503;53.486;10.196;2024-01-06T09:57:54;15.50;;;5.70;;
71665;SDS011;59503;53.486;10.196;2024-01-06T10:00:20;13.83;;;6.20;;
71665;SDS011;59503;53.486;10.196;2024-01-06T10:02:49;15.82;;;6.15;;
71665;SDS011;59503;53.486;10.196;2024-01-06T10:05:16;18.88;;;6.50;;
71665;SDS011;59503;53.486;10.196;2024-01-06T10:07:42;13.20;;;5.50;;
71665;SDS011;59503;53.486;10.196;2024-01-06T10:10:11;13.60;;;5.88;;
71665;SDS011;59503;53.486;10.196;2024-01-06T10:12:38;15.57;;;6.13;;
71665;SDS011;59503;53.486;10.196;2024-01-06T10:15:04;15.02;;;5.63;;
71665;SDS011;59503;53.486;10.196;2024-01-06T10:17:31;12.32;;;5.60;;
71665;SDS011;59503;53.486;10.196;2024-01-06T10:19:57;11.93;;;5.43;;
71665;SDS011;59503;53.486;10.196;2024-01-06T10:22:23;16.77;;;6.35;;
71665;SDS011;59503;53.486;10.196;2024-01-06T10:24:49;14.63;;;5.53;;
71665;SDS011;59503;53.486;10.196;2024-01-06T10:27:14;12.25;;;5.70;;
71665;SDS011;59503;53.486;10.196;2024-01-06T10:29:41;16.40;;;6.07;;
71665;SDS011;59503;53.486;10.196;2024-01-06T10:32:07;13.38;;;5.53;;
71665;SDS011;59503;53.486;10.196;2024-01-06T10:34:33;14.52;;;5.88;;
71665;SDS011;59503;53.486;10.196;2024-01-06T10:37:01;13.20;;;5.53;;
71665;SDS011;59503;53.486;10.196;2024-01-06T10:39:27;13.63;;;5.57;;
71665;SDS011;59503;53.486;10.196;2024-01-06T10:41:54;15.32;;;5.35;;
71665;SDS011;59503;53.486;10.196;2024-01-06T10:44:20;12.80;;;5.77;;
71665;SDS011;59503;53.486;10.196;2024-01-06T10:46:46;11.68;;;5.13;;
71665;SDS011;59503;53.486;10.196;2024-01-06T10:49:14;13.35;;;5.60;;
71665;SDS011;59503;53.486;10.196;2024-01-06T10:51:40;15.07;;;5.53;;
71665;SDS011;59503;53.486;10.196;2024-01-06T10:54:06;12.27;;;5.32;;
71665;SDS011;59503;53.486;10.196;2024-01-06T10:56:37;14.33;;;4.83;;
71665;SDS011;59503;53.486;10.196;2024-01-06T10:59:06;10.15;;;5.28;;
71665;SDS011;59503;53.486;10.196;2024-01-06T11:01:32;11.40;;;5.10;;
71665;SDS011;59503;53.486;10.196;2024-01-06T11:03:59;12.70;;;4.80;;
71665;SDS011;59503;53.486;10.196;2024-01-06T11:06:25;11.45;;;4.65;;
71665;SDS011;59503;53.486;10.196;2024-01-06T11:11:30;13.07;;;5.03;;
71665;SDS011;59503;53.486;10.196;2024-01-06T11:16:46;12.20;;;4.70;;
71665;SDS011;59503;53.486;10.196;2024-01-06T11:25:04;8.25;;;3.38;;
71665;SDS011;59503;53.486;10.196;2024-01-06T11:27:31;11.02;;;5.05;;
71665;SDS011;59503;53.486;10.196;2024-01-06T11:30:00;10.97;;;4.87;;
71665;SDS011;59503;53.486;10.196;2024-01-06T11:32:39;10.80;;;4.82;;
71665;SDS011;59503;53.486;10.196;2024-01-06T11:35:10;10.05;;;4.05;;
71665;SDS011;59503;53.486;10.196;2024-01-06T11:37:42;9.47;;;3.97;;
71665;SDS011;59503;53.486;10.196;2024-01-06T11:43:02;12.10;;;4.78;;
71665;SDS011;59503;53.486;10.196;2024-01-06T11:45:29;10.02;;;4.03;;
71665;SDS011;59503;53.486;10.196;2024-01-06T11:47:56;9.43;;;4.20;;
71665;SDS011;59503;53.486;10.196;2024-01-06T11:50:27;11.60;;;4.38;;
71665;SDS011;59503;53.486;10.196;2024-01-06T11:52:53;10.05;;;3.78;;
71665;SDS011;59503;53.486;10.196;2024-01-06T11:55:20;11.52;;;4.25;;
71665;SDS011;59503;53.486;10.196;2024-01-06T11:57:45;9.70;;;3.83;;
71665;SDS011;59503;53.486;10.196;2024-01-06T12:00:12;11.23;;;4.28;;
71665;SDS011;59503;53.486;10.196;2024-01-06T12:02:41;8.38;;;3.92;;
71665;SDS011;59503;53.486;10.196;2024-01-06T12:05:12;10.85;;;3.88;;
71665;SDS011;59503;53.486;10.196;2024-01-06T12:07:40;7.93;;;3.63;;
71665;SDS011;59503;53.486;10.196;2024-01-06T12:10:07;11.73;;;3.90;;
71665;SDS011;59503;53.486;10.196;2024-01-06T12:12:33;8.32;;;3.65;;
71665;SDS011;59503;53.486;10.196;2024-01-06T12:14:58;9.47;;;4.30;;
71665;SDS011;59503;53.486;10.196;2024-01-06T12:17:24;9.27;;;4.05;;
71665;SDS011;59503;53.486;10.196;2024-01-06T12:19:54;7.37;;;3.17;;
71665;SDS011;59503;53.486;10.196;2024-01-06T12:22:20;7.55;;;3.83;;
71665;SDS011;59503;53.486;10.196;2024-01-06T12:24:48;8.80;;;3.60;;
71665;SDS011;59503;53.486;10.196;2024-01-06T12:27:16;7.80;;;3.40;;
71665;SDS011;59503;53.486;10.196;2024-01-06T12:29:42;7.45;;;3.47;;
71665;SDS011;59503;53.486;10.196;2024-01-06T12:32:08;7.30;;;3.43;;
71665;SDS011;59503;53.486;10.196;2024-01-06T12:34:34;7.80;;;3.55;;
71665;SDS011;59503;53.486;10.196;2024-01-06T12:37:01;9.23;;;3.38;;
71665;SDS011;59503;53.486;10.196;2024-01-06T12:39:27;8.60;;;3.42;;
71665;SDS011;59503;53.486;10.196;2024-01-06T12:41:54;6.80;;;3.10;;
71665;SDS011;59503;53.486;10.196;2024-01-06T12:44:20;12.25;;;3.63;;
71665;SDS011;59503;53.486;10.196;2024-01-06T12:46:46;10.93;;;4.00;;
71665;SDS011;59503;53.486;10.196;2024-01-06T12:49:12;9.73;;;4.17;;
71665;SDS011;59503;53.486;10.196;2024-01-06T12:51:37;9.43;;;3.50;;
71665;SDS011;59503;53.486;10.196;2024-01-06T12:54:03;6.37;;;3.00;;
71665;SDS011;59503;53.486;10.196;2024-01-06T12:56:29;8.77;;;3.60;;
71665;SDS011;59503;53.486;10.196;2024-01-06T12:58:54;8.50;;;3.60;;
71665;SDS011;59503;53.486;10.196;2024-01-06T13:01:21;9.68;;;3.60;;
71665;SDS011;59503;53.486;10.196;2024-01-06T13:03:46;8.95;;;3.05;;
71665;SDS011;59503;53.486;10.196;2024-01-06T13:06:12;9.67;;;3.83;;
71665;SDS011;59503;53.486;10.196;2024-01-06T13:08:38;8.18;;;3.50;;
71665;SDS011;59503;53.486;10.196;2024-01-06T13:11:04;6.40;;;3.17;;
71665;SDS011;59503;53.486;10.196;2024-01-06T13:13:29;7.25;;;3.17;;
71665;SDS011;59503;53.486;10.196;2024-01-06T13:15:56;9.17;;;3.73;;
71665;SDS011;59503;53.486;10.196;2024-01-06T13:18:22;9.05;;;3.58;;
71665;SDS011;59503;53.486;10.196;2024-01-06T13:20:47;9.30;;;4.07;;
71665;SDS011;59503;53.486;10.196;2024-01-06T13:23:15;11.18;;;3.05;;
71665;SDS011;59503;53.486;10.196;2024-01-06T13:25:40;11.52;;;4.45;;
71665;SDS011;59503;53.486;10.196;2024-01-06T13:28:06;7.32;;;3.72;;
71665;SDS011;59503;53.486;10.196;2024-01-06T13:30:32;9.40;;;3.53;;
71665;SDS011;59503;53.486;10.196;2024-01-06T13:32:58;8.18;;;3.47;;
71665;SDS011;59503;53.486;10.196;2024-01-06T13:35:24;8.95;;;3.88;;
71665;SDS011;59503;53.486;10.196;2024-01-06T13:37:50;9.93;;;3.97;;
71665;SDS011;59503;53.486;10.196;2024-01-06T13:40:17;8.57;;;3.38;;
71665;SDS011;59503;53.486;10.196;2024-01-06T13:42:49;6.90;;;2.83;;
71665;SDS011;59503;53.486;10.196;2024-01-06T13:45:16;9.57;;;3.65;;
71665;SDS011;59503;53.486;10.196;2024-01-06T13:47:41;8.40;;;3.60;;
71665;SDS011;59503;53.486;10.196;2024-01-06T13:50:09;9.95;;;3.45;;
71665;SDS011;59503;53.486;10.196;2024-01-06T13:52:38;10.23;;;3.58;;
71665;SDS011;59503;53.486;10.196;2024-01-06T13:55:05;8.50;;;3.70;;
71665;SDS011;59503;53.486;10.196;2024-01-06T13:57:31;9.87;;;4.03;;
71665;SDS011;59503;53.486;10.196;2024-01-06T13:59:57;8.80;;;3.78;;
71665;SDS011;59503;53.486;10.196;2024-01-06T14:02:23;7.10;;;3.50;;
71665;SDS011;59503;53.486;10.196;2024-01-06T14:04:49;8.70;;;3.47;;
71665;SDS011;59503;53.486;10.196;2024-01-06T14:07:15;10.30;;;4.43;;
71665;SDS011;59503;53.486;10.196;2024-01-06T14:09:44;7.80;;;2.95;;
71665;SDS011;59503;53.486;10.196;2024-01-06T14:12:09;7.33;;;3.00;;
71665;SDS011;59503;53.486;10.196;2024-01-06T14:14:35;7.83;;;3.50;;
71665;SDS011;59503;53.486;10.196;2024-01-06T14:17:00;6.38;;;3.20;;
71665;SDS011;59503;53.486;10.196;2024-01-06T14:19:25;7.87;;;2.90;;
71665;SDS011;59503;53.486;10.196;2024-01-06T14:21:51;8.43;;;3.30;;
71665;SDS011;59503;53.486;10.196;2024-01-06T14:24:16;8.40;;;3.10;;
71665;SDS011;59503;53.486;10.196;2024-01-06T14:26:52;5.60;;;2.90;;
71665;SDS011;59503;53.486;10.196;2024-01-06T14:29:20;9.20;;;3.00;;
71665;SDS011;59503;53.486;10.196;2024-01-06T14:31:45;8.27;;;3.00;;